Pagrindinis puslapis
METAR-TAF:

METAR-TAF

Oro uostai :

Gvidonija, Italija

platuma: 42-00N, ilguma: 012-44E, Aukštis: 88 m

Dabartinis oras

Ataskaita buvo paskelbta 11 valandos ir 0 minutes, ne 17:55 UTC
Vėjas 5 kt iš Pietvakarių
Temperatūra 31°C
Drėgmė 36%
Slėgis 1016 hPa
Matomumas 10 km arba daugiau
nėra debesų žemiau 1500 m ir nėra kamuolinių lietaus debesų

METAR: LIRG 121755Z 22005KT CAVOK 31/14 Q1016 RMK SKC MON NE LIB NC VIS MIN 9999 BLU

Laikas: 06:55 (04:55 UTC)

Prognozė

Ataskaita buvo paskelbta 14 valandos ir 55 minutes, ne 14:00 UTC
Prognozė galioja nuo 12 metu 15 UTC su 12 metu 24 UTC
Vėjas 8 kt iš Vakarų/Pietvakarių
Matomumas 10 km arba daugiau
Mažai debesys ne aukštis 3000 ft

TAF: LIRG 121400Z 1215/1224 25008KT 9999 FEW030

Orai ataskaitas ir orų prognozės (METAR, TAF).

turimą stotys yra geltonos ir raudonos taškus žemėlapyje.

Perkelti pele per norėdami pamatyti stoties vardą.

Tada spustelėkite, norėdami matyti oro stebėjimo ir prognozės.

Norėdami pakeisti žemėlapį: spustelėkite ant žalios mygtukų su juodo kryžiaus žemyn,; žalią mygtuką su brūkšneliu, jei norite nutolinti; arba žalių rodyklių gretimoms žemėlapius.


METAR-TAF: